Latest Weather Observations for Lake Macquarie - Cooranbong

IDN60901

Issued at 4:25 pm EDT Friday 28 November 2014 (issued every 10 minutes, with the page automatically refreshed every 10 minutes)

About weather observations | Map of Sydney area stations | Latest observations for Sydney area | Other Formats
Station Details ID: 061412 Name: LAKE MACQUARIE AWS Lat: -33.09 Lon: 151.46 Height: 6.0 m
Data from the previous 72 hours. | See also: Recent months at Lake Macquarie - Cooranbong
Date/Time
EDT
Tmp

°C
App
Tmp
°C
Dew
Point
°C
Rel
Hum
%
Delta-T

°C
Wind Press
QNH
hPa
Press
MSL
hPa
Rain
since
9 am
mm
Dir
 
Spd
km/h
Gust
km/h
Spd
kts
Gust
kts
28/04:00pm 22.5 20.8 12.4 52 5.7 E 13 20 7 11 1020.9 1020.9 0.0
28/03:30pm 21.5 19.0 11.2 52 5.7 E 15 20 8 11 1021.2 1021.2 0.0
28/03:00pm 21.9 20.4 11.9 53 5.6 E 11 24 6 13 1021.5 1021.5 0.0
28/02:30pm 22.0 21.0 12.3 54 5.5 ENE 9 17 5 9 1021.8 1021.8 0.0
28/02:00pm 22.6 22.1 12.5 53 5.7 E 7 15 4 8 1022.1 1022.1 0.0
28/01:30pm 21.7 20.5 11.7 53 5.6 ENE 9 17 5 9 1022.5 1022.5 0.0
28/01:00pm 21.2 19.7 11.8 55 5.2 E 11 17 6 9 1023.0 1023.0 0.0
28/12:30pm 21.2 20.5 12.1 56 5.1 SSE 7 17 4 9 1023.4 1023.4 0.0
28/12:00pm 20.3 19.7 11.8 58 4.7 E 6 9 3 5 1023.8 1023.8 0.0
28/11:30am 20.3 19.8 12.0 59 4.6 ESE 6 9 3 5 1024.0 1024.0 0.0
28/11:00am 20.4 20.0 12.4 60 4.5 ESE 6 9 3 5 1024.0 1024.0 0.0
28/10:30am 20.1 19.4 12.1 60 4.5 ESE 7 11 4 6 1024.0 1024.0 0.0
28/10:00am 19.8 19.5 12.8 64 3.9 ESE 6 9 3 5 1024.0 1024.0 0.0
28/09:30am 19.8 20.0 13.0 65 3.8 S 4 7 2 4 1023.9 1023.9 0.0
28/09:00am 19.4 20.7 14.2 72 3.0 CALM 0 4 0 2 1023.8 1023.8 3.2
28/08:30am 18.4 19.5 14.5 78 2.3 SW 2 6 1 3 1023.7 1023.7 3.2
28/08:00am 17.6 19.2 14.9 84 1.6 CALM 0 0 0 0 1023.4 1023.4 3.2
28/07:30am 17.3 19.0 15.3 88 1.2 CALM 0 0 0 0 1023.1 1023.1 3.2
28/07:00am 17.0 18.6 14.8 87 1.3 CALM 0 0 0 0 1022.7 1022.7 3.2
28/06:30am 16.9 18.6 15.1 89 1.0 CALM 0 0 0 0 1022.5 1022.5 3.2
28/06:00am 16.7 18.1 14.5 87 1.3 CALM 0 0 0 0 1022.3 1022.3 3.2
28/05:30am 16.5 17.6 14.5 88 1.1 SW 2 4 1 2 1022.0 1022.0 3.2
28/05:00am 16.6 18.2 15.0 90 0.9 CALM 0 0 0 0 1021.9 1021.9 3.2
28/04:30am 16.8 18.5 15.2 90 0.9 CALM 0 0 0 0 1021.9 1021.9 3.2
28/04:00am 16.8 18.5 15.2 90 0.9 CALM 0 0 0 0 1021.9 1021.9 3.2
28/03:30am 16.8 18.4 14.8 88 1.2 CALM 0 0 0 0 1022.0 1022.0 3.2
28/03:00am 17.0 18.6 14.8 87 1.3 CALM 0 0 0 0 1022.3 1022.3 3.2
28/02:30am 17.0 18.6 14.8 87 1.3 CALM 0 0 0 0 1022.4 1022.4 3.2
28/02:00am 17.1 18.7 14.9 87 1.3 CALM 0 0 0 0 1022.5 1022.5 3.2
28/01:30am 17.3 18.9 14.9 86 1.4 CALM 0 0 0 0 1022.8 1022.8 3.2
28/01:00am 17.7 19.0 14.2 80 2.0 CALM 0 0 0 0 1023.2 1023.2 3.2
28/12:30am 17.8 19.2 14.5 81 1.9 CALM 0 2 0 1 1023.4 1023.4 3.2
28/12:00am 18.0 19.1 14.5 80 2.0 SW 2 2 1 1 1023.6 1023.6 3.2
 
Date/Time
EDT
Tmp

°C
App
Tmp
°C
Dew
Point
°C
Rel
Hum
%
Delta-T

°C
Wind Press
QNH
hPa
Press
MSL
hPa
Rain
since
9 am
mm
Dir
 
Spd
km/h
Gust
km/h
Spd
kts
Gust
kts
27/11:30pm 18.5 19.0 14.0 75 2.6 SSW 4 6 2 3 1023.8 1023.8 3.2
27/11:00pm 18.8 19.7 13.9 73 2.8 SE 2 6 1 3 1023.9 1023.9 3.2
27/10:30pm 19.0 19.4 13.6 71 3.1 SE 4 9 2 5 1024.0 1024.0 3.2
27/10:00pm 19.0 19.0 13.6 71 3.1 SE 6 13 3 7 1023.9 1023.9 3.2
27/09:30pm 19.0 19.2 14.1 73 2.8 ESE 6 7 3 4 1023.9 1023.9 3.2
27/09:00pm 19.0 19.0 14.1 73 2.8 SE 7 13 4 7 1023.7 1023.7 3.2
27/08:30pm 19.0 18.9 13.8 72 3.0 ESE 7 11 4 6 1023.5 1023.5 3.2
27/08:00pm 19.1 19.2 13.9 72 3.0 SE 6 11 3 6 1023.4 1023.4 3.2
27/07:30pm 19.1 19.1 13.7 71 3.1 SE 6 13 3 7 1023.1 1023.1 3.2
27/07:00pm 19.2 18.7 13.8 71 3.1 SE 9 22 5 12 1022.7 1022.7 3.2
27/06:30pm 19.5 19.5 14.1 71 3.1 SSE 7 15 4 8 1022.3 1022.3 3.2
27/06:00pm 19.4 19.3 13.8 70 3.2 SSE 7 19 4 10 1022.0 1022.0 3.2
27/05:30pm 19.5 19.5 14.3 72 3.0 SSE 7 19 4 10 1021.9 1021.9 3.2
27/05:00pm 19.4 19.0 14.2 72 3.0 SSE 9 17 5 9 1021.9 1021.9 3.2
27/04:30pm 18.7 19.3 15.4 81 1.9 S 6 15 3 8 1022.0 1022.0 3.2
27/04:00pm 18.3 19.0 15.7 85 1.5 S 6 11 3 6 1022.0 1022.0 3.2
27/03:30pm 18.4 18.9 15.6 84 1.6 SE 7 15 4 8 1022.0 1022.0 3.0
27/03:00pm 19.1 20.6 15.8 81 1.9 SE 2 11 1 6 1021.9 1021.9 0.8
27/02:30pm 19.1 19.7 15.2 78 2.3 SE 6 11 3 6 1021.9 1021.9 0.6
27/02:00pm 20.8 20.9 14.5 67 3.7 SSE 7 15 4 8 1021.8 1021.8 0.0
27/01:30pm 20.6 19.5 14.3 67 3.7 ESE 13 19 7 10 1021.7 1021.7 0.0
27/01:00pm 20.8 20.6 14.7 68 3.6 SE 9 20 5 11 1021.6 1021.6 0.0
27/12:30pm 20.5 20.0 14.8 70 3.3 SE 11 24 6 13 1021.7 1021.7 0.0
27/12:00pm 21.2 20.8 15.1 68 3.6 ESE 11 22 6 12 1021.6 1021.6 0.0
27/11:30am 21.3 20.0 14.7 66 3.9 ESE 15 26 8 14 1021.6 1021.6 0.0
27/11:00am 21.5 19.9 14.9 66 3.9 ESE 17 24 9 13 1021.5 1021.5 0.0
27/10:30am 22.0 21.8 15.6 67 3.8 ESE 11 19 6 10 1021.3 1021.3 0.0
27/10:00am 21.5 20.9 15.6 69 3.5 SSE 13 24 7 13 1021.3 1021.3 0.0
27/09:30am 21.3 20.9 15.2 68 3.6 SE 11 22 6 12 1021.2 1021.2 0.0
27/09:00am 20.5 20.3 15.7 74 2.8 SSE 11 24 6 13 1021.3 1021.3 0.0
27/08:30am 20.4 20.3 16.0 76 2.6 SE 11 30 6 16 1020.9 1020.9 0.0
27/08:00am 20.4 20.4 16.2 77 2.5 SSE 11 24 6 13 1020.5 1020.5 0.0
27/07:30am 20.1 20.3 16.7 81 2.1 SSE 11 22 6 12 1020.2 1020.2 0.0
27/07:00am 20.1 20.5 17.3 84 1.7 S 11 22 6 12 1019.7 1019.7 0.0
27/06:30am 20.5 22.2 17.1 81 2.1 S 4 7 2 4 1019.0 1019.0 0.0
27/06:00am 20.3 22.7 17.1 82 1.9 CALM 0 2 0 1 1018.7 1018.7 0.0
27/05:30am 20.3 22.4 17.1 82 1.9 S 2 6 1 3 1018.2 1018.2 0.0
27/05:00am 20.4 22.1 17.2 82 1.9 S 4 6 2 3 1018.0 1018.0 0.0
27/04:30am 20.3 22.1 17.5 84 1.7 S 4 7 2 4 1017.7 1017.7 0.0
27/04:00am 20.4 23.1 17.8 85 1.6 CALM 0 4 0 2 1017.4 1017.4 0.0
27/03:30am 20.3 23.0 17.7 85 1.6 CALM 0 4 0 2 1017.3 1017.3 0.0
27/03:00am 20.5 22.4 17.7 84 1.7 S 4 7 2 4 1017.2 1017.2 0.0
27/02:30am 20.5 22.4 17.7 84 1.7 S 4 7 2 4 1017.2 1017.2 0.0
27/02:00am 20.3 23.1 17.9 86 1.5 CALM 0 0 0 0 1017.4 1017.4 0.0
27/01:30am 20.5 22.6 18.1 86 1.5 S 4 7 2 4 1017.7 1017.7 0.0
27/01:00am 20.9 23.5 18.5 86 1.5 S 2 6 1 3 1017.8 1017.8 0.0
27/12:30am 20.6 23.6 18.5 88 1.3 CALM 0 2 0 1 1017.9 1017.9 0.0
27/12:00am 20.1 23.0 18.1 88 1.2 CALM 0 0 0 0 1018.2 1018.2 0.0
 
Date/Time
EDT
Tmp

°C
App
Tmp
°C
Dew
Point
°C
Rel
Hum
%
Delta-T

°C
Wind Press
QNH
hPa
Press
MSL
hPa
Rain
since
9 am
mm
Dir
 
Spd
km/h
Gust
km/h
Spd
kts
Gust
kts
26/11:30pm 20.1 22.5 17.9 87 1.4 SSW 2 4 1 2 1018.2 1018.2 0.0
26/11:00pm 19.8 22.1 17.6 87 1.3 SW 2 7 1 4 1017.9 1017.9 0.0
26/10:30pm 19.9 21.7 17.5 86 1.5 SW 4 6 2 3 1017.8 1017.8 0.0
26/10:00pm 19.9 22.5 17.5 86 1.5 CALM 0 0 0 0 1017.5 1017.5 0.0
26/09:30pm 20.1 22.3 17.5 85 1.6 S 2 4 1 2 1017.3 1017.3 0.0
26/09:00pm 20.6 23.2 17.4 82 2.0 CALM 0 0 0 0 1016.8 1016.8 0.0
26/08:30pm 21.4 23.2 17.4 78 2.5 E 4 7 2 4 1016.5 1016.5 0.0
26/08:00pm 21.6 22.4 17.4 77 2.6 ESE 9 15 5 8 1016.4 1016.4 0.0
26/07:30pm 21.6 22.4 17.2 76 2.7 E 9 17 5 9 1016.1 1016.1 0.0
26/07:00pm 21.9 22.1 16.8 73 3.1 E 11 19 6 10 1015.9 1015.9 0.0
26/06:30pm 22.5 21.6 16.8 70 3.5 ESE 17 24 9 13 1015.5 1015.5 0.0
26/06:00pm 22.7 23.2 16.5 68 3.8 E 9 17 5 9 1015.3 1015.3 0.0
26/05:30pm 22.9 22.3 16.7 68 3.8 ESE 15 24 8 13 1015.3 1015.3 0.0
26/05:00pm 23.2 23.6 17.2 69 3.7 E 11 22 6 12 1015.2 1015.2 0.0
26/04:30pm 24.2 24.8 17.7 67 4.1 E 11 22 6 12 1015.3 1015.3 0.0
26/04:00pm 22.6 21.6 16.6 69 3.7 E 17 28 9 15 1015.9 1015.9 0.0
26/03:30pm 23.1 22.5 16.6 67 4.0 E 15 24 8 13 1016.3 1016.3 0.0
26/03:00pm 23.1 23.8 16.2 65 4.2 ESE 7 17 4 9 1016.7 1016.7 0.0
26/02:30pm 23.5 24.7 16.8 66 4.1 E 6 11 3 6 1016.8 1016.8 0.0
26/02:00pm 22.3 23.0 16.1 68 3.7 E 7 13 4 7 1017.3 1017.3 0.0
26/01:30pm 22.1 22.9 15.9 68 3.7 E 6 15 3 8 1017.4 1017.4 0.0
26/01:00pm 22.0 22.5 15.6 67 3.8 E 7 15 4 8 1017.8 1017.8 0.0
26/12:30pm 22.1 22.0 15.0 64 4.2 E 9 20 5 11 1018.1 1018.1 0.0
26/12:00pm 22.0 22.2 15.8 68 3.7 E 9 13 5 7 1018.4 1018.4 0.0
26/11:30am 21.7 22.3 15.8 69 3.5 ESE 7 15 4 8 1018.9 1018.9 0.0
26/11:00am 21.4 21.5 15.5 69 3.5 E 9 17 5 9 1019.1 1019.1 0.0
26/10:30am 21.5 21.9 15.3 68 3.7 E 7 13 4 7 1019.4 1019.4 0.0
26/10:00am 21.3 21.7 15.4 69 3.5 E 7 15 4 8 1019.4 1019.4 0.0
26/09:30am 21.2 21.5 15.1 68 3.6 ESE 7 17 4 9 1019.4 1019.4 0.0
26/09:00am 20.7 21.3 15.3 71 3.2 E 6 13 3 7 1019.5 1019.5 0.0
26/08:30am 20.1 21.2 15.7 76 2.6 E 4 9 2 5 1019.6 1019.6 0.0
26/08:00am 18.7 20.5 15.6 82 1.8 CALM 0 0 0 0 1019.6 1019.6 0.0
26/07:30am 18.1 20.3 16.4 90 1.0 CALM 0 0 0 0 1019.5 1019.5 0.0
26/07:00am 17.5 19.5 16.0 91 0.9 CALM 0 0 0 0 1019.5 1019.5 0.0
26/06:30am 16.6 18.4 15.5 93 0.6 CALM 0 0 0 0 1019.3 1019.3 0.0
26/06:00am 16.3 18.0 15.3 94 0.6 CALM 0 0 0 0 1019.4 1019.4 0.0
26/05:30am 16.2 17.5 15.2 94 0.6 N 2 4 1 2 1019.3 1019.3 0.0
26/05:00am 16.1 17.7 15.0 93 0.6 CALM 0 0 0 0 1019.0 1019.0 0.0
26/04:30am 16.3 18.0 15.2 93 0.6 CALM 0 0 0 0 1019.0 1019.0 0.0
26/04:00am 16.5 18.3 15.4 93 0.6 CALM 0 0 0 0 1019.1 1019.1 0.0
26/03:30am 16.3 18.0 15.2 93 0.6 CALM 0 0 0 0 1019.2 1019.2 0.0
26/03:00am 16.3 18.0 15.3 94 0.6 CALM 0 0 0 0 1019.3 1019.3 0.0
26/02:30am 15.7 17.2 14.6 93 0.6 CALM 0 0 0 0 1019.5 1019.5 0.0
26/02:00am 15.9 17.4 14.6 92 0.7 CALM 0 0 0 0 1019.7 1019.7 0.0
26/01:30am 15.9 17.2 14.1 89 1.0 CALM 0 0 0 0 1019.7 1019.7 0.0
26/01:00am 16.8 18.2 14.4 86 1.4 CALM 0 0 0 0 1020.2 1020.2 0.0
26/12:30am 17.5 18.9 14.4 82 1.8 CALM 0 0 0 0 1020.5 1020.5 0.0
26/12:00am 18.9 20.0 14.6 76 2.5 ENE 2 4 1 2 1020.5 1020.5 0.0
 
Date/Time
EDT
Tmp

°C
App
Tmp
°C
Dew
Point
°C
Rel
Hum
%
Delta-T

°C
Wind Press
QNH
hPa
Press
MSL
hPa
Rain
since
9 am
mm
Dir
 
Spd
km/h
Gust
km/h
Spd
kts
Gust
kts
25/11:30pm 18.8 20.4 14.9 78 2.3 CALM 0 2 0 1 1020.5 1020.5 0.0
25/11:00pm 19.0 19.7 14.5 75 2.6 NNE 4 6 2 3 1020.6 1020.6 0.0
25/10:30pm 19.2 19.9 14.5 74 2.7 NE 4 7 2 4 1020.4 1020.4 0.0
25/10:00pm 19.4 20.1 14.6 74 2.8 NNE 4 7 2 4 1020.3 1020.3 0.0
25/09:30pm 19.3 20.4 14.6 74 2.7 NE 2 6 1 3 1020.0 1020.0 0.0
25/09:00pm 19.3 20.0 14.6 74 2.7 ENE 4 9 2 5 1019.7 1019.7 0.0
25/08:30pm 19.4 20.1 14.4 73 2.9 NE 4 9 2 5 1019.3 1019.3 0.0
25/08:00pm 19.9 20.3 14.7 72 3.0 NE 6 9 3 5 1019.0 1019.0 0.0
25/07:30pm 20.1 20.2 14.5 70 3.3 ENE 7 15 4 8 1018.4 1018.4 0.0
25/07:00pm 20.4 20.5 14.5 69 3.4 E 7 15 4 8 1018.0 1018.0 0.0
25/06:30pm 20.4 20.5 14.5 69 3.4 ESE 7 13 4 7 1017.4 1017.4 0.0
25/06:00pm 20.4 20.1 14.5 69 3.4 ESE 9 17 5 9 1017.1 1017.1 0.0
25/05:30pm 20.5 20.2 14.4 68 3.6 ESE 9 15 5 8 1017.0 1017.0 0.0
25/05:00pm 20.5 19.5 14.6 69 3.4 ESE 13 20 7 11 1016.9 1016.9 0.0
25/04:30pm 20.8 19.8 14.7 68 3.6 ESE 13 22 7 12 1016.8 1016.8 0.0

Latest Capital City Observations: Canberra | Sydney | Melbourne | Brisbane | Adelaide | Perth | Hobart | Darwin

Other Formats:

Comma delimited format used in spreadsheet applications
http://www.bom.gov.au/fwo/IDN60901/IDN60901.95767.axf

JavaScript Object Notation format (JSON) in row-major order
http://www.bom.gov.au/fwo/IDN60901/IDN60901.95767.json